Time;durP1;ratioP1;P1;durP2;ratioP2;P2;SDS_P1;SDS_P2;PMS_P1;PMS_P2;Temp;Humidity;BMP_temperature;BMP_pressure;BME280_temperature;BME280_humidity;BME280_pressure;Samples;Min_cycle;Max_cycle;Signal;HPM_P1;HPM_P2
2021/12/03 00:00:31;;;;;;;12.48;5.30;;;;;;;0.29;100.00;100902.84;5058566;28;20033;-56
2021/12/03 00:02:56;;;;;;;15.23;6.45;;;;;;;0.38;100.00;100907.28;5058370;28;20040;-53
2021/12/03 00:05:22;;;;;;;15.85;5.75;;;;;;;0.04;100.00;100859.44;5058280;28;20033;-54
2021/12/03 00:07:47;;;;;;;12.57;6.20;;;;;;;0.08;100.00;100868.13;5058593;28;20033;-53
2021/12/03 00:10:14;;;;;;;16.08;6.30;;;;;;;0.17;100.00;100871.69;5058056;28;20145;-51
2021/12/03 00:12:41;;;;;;;14.88;5.78;;;;;;;0.61;100.00;100935.97;5058509;28;20028;-53
2021/12/03 00:15:09;;;;;;;16.98;5.65;;;;;;;0.36;100.00;100871.00;5058277;28;20029;-51
2021/12/03 00:17:34;;;;;;;11.15;6.28;;;;;;;0.74;100.00;100911.91;5058266;28;20035;-53
2021/12/03 00:20:00;;;;;;;13.75;5.68;;;;;;;0.86;100.00;100923.25;5073988;28;20041;-53
2021/12/03 00:22:25;;;;;;;16.55;6.28;;;;;;;0.95;100.00;100922.44;5057244;28;20041;-51
2021/12/03 00:24:51;;;;;;;9.27;5.55;;;;;;;0.71;100.00;100866.09;5057746;28;20522;-52
2021/12/03 00:27:16;;;;;;;13.45;5.32;;;;;;;0.80;100.00;100867.91;5058258;28;20032;-52
2021/12/03 00:29:42;;;;;;;8.18;5.75;;;;;;;1.06;100.00;100916.47;5054692;28;20036;-52
2021/12/03 00:32:08;;;;;;;14.27;5.28;;;;;;;0.99;100.00;100929.41;5055030;28;20375;-51
2021/12/03 00:34:33;;;;;;;14.77;5.60;;;;;;;1.04;100.00;100931.16;5070487;28;20037;-49
2021/12/03 00:36:58;;;;;;;15.00;5.20;;;;;;;0.66;100.00;100872.13;5055159;28;20037;-52
2021/12/03 00:39:24;;;;;;;13.65;4.53;;;;;;;0.89;100.00;100923.25;5055031;28;20045;-49
2021/12/03 00:41:56;;;;;;;6.57;4.45;;;;;;;0.60;100.00;100883.28;5054841;28;20028;-49
2021/12/03 00:44:24;;;;;;;12.52;4.22;;;;;;;0.83;100.00;100937.88;5069286;28;20468;-52
2021/12/03 00:46:49;;;;;;;11.07;3.78;;;;;;;0.50;100.00;100877.16;5069702;28;20039;-51
2021/12/03 00:49:15;;;;;;;10.00;3.72;;;;;;;0.77;100.00;100924.88;5054528;28;20033;-53
2021/12/03 00:51:40;;;;;;;8.73;3.83;;;;;;;0.79;100.00;100925.78;5054744;28;20040;-52
2021/12/03 00:54:05;;;;;;;12.07;3.83;;;;;;;0.74;100.00;100925.72;5053507;28;20033;-51
2021/12/03 00:56:31;;;;;;;10.75;3.65;;;;;;;0.73;100.00;100913.59;5054613;28;20037;-50
2021/12/03 00:58:56;;;;;;;11.70;3.20;;;;;;;0.82;100.00;100929.25;5070205;28;20035;-49
2021/12/03 01:01:21;;;;;;;10.65;2.95;;;;;;;0.42;100.00;100858.09;5053067;28;20040;-49
2021/12/03 01:03:47;;;;;;;10.80;3.08;;;;;;;0.67;100.00;100892.00;5054685;28;20047;-49
2021/12/03 01:06:12;;;;;;;8.45;3.35;;;;;;;0.84;100.00;100917.19;5070030;28;20037;-50
2021/12/03 01:08:38;;;;;;;9.07;3.08;;;;;;;0.77;100.00;100897.25;5054360;28;20519;-49
2021/12/03 01:11:05;;;;;;;9.93;2.97;;;;;;;0.87;100.00;100925.00;5069777;28;20043;-50
2021/12/03 01:13:30;;;;;;;9.82;3.00;;;;;;;0.88;100.00;100905.09;5054230;28;20024;-49
2021/12/03 01:15:55;;;;;;;6.47;2.70;;;;;;;0.93;100.00;100919.84;5054018;28;20093;-49
2021/12/03 01:18:21;;;;;;;9.60;2.92;;;;;;;0.94;100.00;100892.19;5069789;28;20483;-52
2021/12/03 01:20:46;;;;;;;9.85;2.72;;;;;;;1.03;100.00;100908.69;5052862;28;20025;-50
2021/12/03 01:23:13;;;;;;;7.40;3.00;;;;;;;1.06;100.00;100905.25;5069331;28;20037;-48
2021/12/03 01:25:39;;;;;;;9.57;3.95;;;;;;;1.10;100.00;100907.00;5052808;28;20048;-48
2021/12/03 01:28:04;;;;;;;8.40;3.28;;;;;;;1.09;100.00;100910.44;5053891;28;20396;-50
2021/12/03 01:30:31;;;;;;;6.40;2.75;;;;;;;0.58;100.00;100810.75;5053722;28;20036;-50
2021/12/03 01:32:58;;;;;;;11.93;3.15;;;;;;;1.18;100.00;100913.09;5054007;28;20043;-50
2021/12/03 01:35:25;;;;;;;11.15;3.35;;;;;;;1.21;100.00;100920.03;5053824;28;20033;-48
2021/12/03 01:37:51;;;;;;;10.40;3.40;;;;;;;0.68;100.00;100813.41;5053864;28;20045;-51
2021/12/03 01:40:20;;;;;;;12.48;3.67;;;;;;;1.31;100.00;100919.25;5052669;28;20541;-56
2021/12/03 01:42:46;;;;;;;15.15;3.20;;;;;;;0.96;100.00;100867.16;5053571;28;20075;-54
2021/12/03 01:45:15;;;;;;;7.82;3.20;;;;;;;1.27;100.00;100912.28;5053622;28;20072;-56
2021/12/03 01:47:42;;;;;;;11.07;3.15;;;;;;;1.05;100.00;100865.47;5053767;28;20036;-52
2021/12/03 01:50:08;;;;;;;15.38;3.13;;;;;;;1.07;100.00;100861.19;5053378;28;20078;-54
2021/12/03 01:52:34;;;;;;;6.55;2.53;;;;;;;1.39;100.00;100908.06;5052226;28;20443;-54
2021/12/03 01:55:01;;;;;;;8.48;2.88;;;;;;;1.41;100.00;100901.16;5053247;28;20041;-52
2021/12/03 01:57:27;;;;;;;10.50;2.53;;;;;;;1.45;100.00;100895.13;5052114;28;20112;-52
2021/12/03 01:59:52;;;;;;;9.52;2.90;;;;;;;1.18;100.00;100832.72;5053068;28;20107;-53
2021/12/03 02:02:18;;;;;;;8.13;2.25;;;;;;;1.22;100.00;100844.00;5053405;28;20040;-54
2021/12/03 02:04:43;;;;;;;6.70;2.08;;;;;;;1.55;100.00;100889.09;5053270;28;20036;-53
2021/12/03 02:07:09;;;;;;;16.35;2.40;;;;;;;0.99;100.00;100790.28;5051480;28;20029;-53
2021/12/03 02:09:34;;;;;;;12.05;2.20;;;;;;;1.56;100.00;100874.41;5053347;28;20038;-55
2021/12/03 02:11:59;;;;;;;8.65;1.60;;;;;;;1.49;100.00;100857.94;5052977;28;20093;-51
2021/12/03 02:14:25;;;;;;;6.82;1.88;;;;;;;1.51;100.00;100865.75;5051681;28;20025;-54
2021/12/03 02:16:50;;;;;;;12.00;2.08;;;;;;;1.53;100.00;100872.69;5053168;28;20044;-52
2021/12/03 02:19:17;;;;;;;6.97;1.95;;;;;;;1.05;100.00;100787.72;5053377;28;20373;-52
2021/12/03 02:21:43;;;;;;;12.30;3.05;;;;;;;1.59;100.00;100874.44;5052951;28;20037;-50
2021/12/03 02:24:08;;;;;;;11.52;2.20;;;;;;;1.65;100.00;100882.25;5051715;28;20072;-50
2021/12/03 02:26:34;;;;;;;7.20;1.85;;;;;;;1.68;100.00;100896.09;5052834;28;20037;-53
2021/12/03 02:28:59;;;;;;;9.10;2.30;;;;;;;1.44;100.00;100848.41;5052753;28;20028;-49
2021/12/03 02:31:25;;;;;;;16.08;2.83;;;;;;;1.29;100.00;100820.69;5052917;28;20037;-51
2021/12/03 02:33:51;;;;;;;10.93;3.00;;;;;;;1.42;100.00;100844.97;5051592;28;20040;-53
2021/12/03 02:36:18;;;;;;;9.32;2.95;;;;;;;1.45;100.00;100827.69;5068128;28;20061;-50
2021/12/03 02:38:44;;;;;;;9.50;3.47;;;;;;;1.46;100.00;100816.44;5052598;28;20075;-53
2021/12/03 02:41:09;;;;;;;11.63;2.65;;;;;;;1.84;100.00;100878.00;5068357;28;20032;-54
2021/12/03 02:43:35;;;;;;;11.88;3.40;;;;;;;1.55;100.00;100820.78;5052491;28;20036;-53
2021/12/03 02:46:00;;;;;;;9.55;2.92;;;;;;;1.81;100.00;100863.25;5052607;28;20033;-54
2021/12/03 02:48:27;;;;;;;10.35;2.70;;;;;;;1.90;100.00;100873.69;5051450;28;20445;-51
2021/12/03 02:50:53;;;;;;;11.13;2.85;;;;;;;1.95;100.00;100872.00;5051082;28;20184;-54
2021/12/03 02:53:19;;;;;;;14.07;3.97;;;;;;;2.17;100.00;100883.28;5052111;28;20499;-53
2021/12/03 02:55:44;;;;;;;11.05;3.30;;;;;;;1.96;100.00;100826.97;5050990;28;20040;-53
2021/12/03 02:58:12;;;;;;;12.82;3.33;;;;;;;1.89;100.00;100814.00;5052181;28;20029;-51
2021/12/03 03:00:38;;;;;;;12.60;3.45;;;;;;;2.17;100.00;100868.56;5052419;28;20029;-51
2021/12/03 03:03:04;;;;;;;12.52;2.53;;;;;;;2.05;100.00;100821.81;5052406;28;20029;-49
2021/12/03 03:05:29;;;;;;;8.93;2.75;;;;;;;2.23;100.00;100871.19;5052463;28;20128;-53
2021/12/03 03:07:55;;;;;;;7.15;2.42;;;;;;;2.24;100.00;100872.94;5052178;28;20033;-56
2021/12/03 03:10:25;;;;;;;7.30;2.33;;;;;;;2.05;100.00;100863.34;5052031;28;20091;-52
2021/12/03 03:12:53;;;;;;;13.70;3.05;;;;;;;2.13;100.00;100872.00;5052068;28;20025;-52
2021/12/03 03:15:18;;;;;;;5.22;2.20;;;;;;;2.21;100.00;100872.91;5050796;28;20037;-52
2021/12/03 03:17:44;;;;;;;12.98;2.70;;;;;;;2.33;100.00;100879.00;5052127;28;20037;-54
2021/12/03 03:20:11;;;;;;;12.95;2.50;;;;;;;2.55;100.00;100852.16;5052076;28;20037;-51
2021/12/03 03:22:37;;;;;;;10.18;2.10;;;;;;;2.04;100.00;100788.06;5052078;28;20032;-54
2021/12/03 03:25:04;;;;;;;9.57;2.17;;;;;;;2.05;100.00;100777.66;5050569;28;20068;-51
2021/12/03 03:27:30;;;;;;;8.15;1.90;;;;;;;2.10;100.00;100775.94;5052045;28;20029;-53
2021/12/03 03:29:56;;;;;;;7.55;1.98;;;;;;;2.13;100.00;100778.53;5052156;28;20036;-56
2021/12/03 03:32:21;;;;;;;8.80;2.22;;;;;;;2.37;100.00;100820.97;5052196;28;20043;-54
2021/12/03 03:34:47;;;;;;;10.57;1.58;;;;;;;2.48;100.00;100827.06;5050812;28;20037;-53
2021/12/03 03:37:12;;;;;;;10.60;1.50;;;;;;;2.52;100.00;100827.03;5052247;28;20041;-54
2021/12/03 03:39:38;;;;;;;8.32;1.50;;;;;;;2.19;100.00;100749.97;5052252;28;20040;-55
2021/12/03 03:42:04;;;;;;;8.02;1.60;;;;;;;2.63;100.00;100821.84;5051881;28;20048;-53
2021/12/03 03:44:29;;;;;;;9.70;1.50;;;;;;;2.62;100.00;100799.34;5052046;28;20033;-52
2021/12/03 03:46:56;;;;;;;7.22;1.40;;;;;;;2.70;100.00;100819.25;5050759;28;20032;-56
2021/12/03 03:49:22;;;;;;;5.40;1.25;;;;;;;2.66;100.00;100803.66;5051993;28;20120;-54
2021/12/03 03:51:49;;;;;;;8.05;1.27;;;;;;;2.75;100.00;100807.09;5051805;28;20463;-55
2021/12/03 03:54:14;;;;;;;7.43;1.55;;;;;;;2.81;100.00;100820.09;5051698;28;20480;-51
2021/12/03 03:56:40;;;;;;;5.88;1.20;;;;;;;2.42;100.00;100736.13;5067228;28;20055;-57
2021/12/03 03:59:05;;;;;;;9.50;1.75;;;;;;;2.50;100.00;100752.56;5050582;28;20124;-56
2021/12/03 04:01:30;;;;;;;4.85;1.65;;;;;;;2.52;100.00;100743.91;5050499;28;20033;-54
2021/12/03 04:03:56;;;;;;;11.18;2.33;;;;;;;2.89;100.00;100799.28;5053024;28;20037;-49
2021/12/03 04:06:22;;;;;;;13.30;2.17;;;;;;;2.96;100.00;100794.94;5054359;28;20029;-55
2021/12/03 04:08:48;;;;;;;7.85;1.80;;;;;;;3.00;100.00;100799.28;5055525;28;20119;-54
2021/12/03 04:11:16;;;;;;;13.65;2.00;;;;;;;2.67;100.00;100737.81;5055307;28;20064;-55
2021/12/03 04:13:43;;;;;;;7.95;2.00;;;;;;;2.99;100.00;100803.59;5055283;28;20033;-56
2021/12/03 04:16:08;;;;;;;6.97;2.10;;;;;;;2.28;100.00;100687.66;5055295;28;20095;-58
2021/12/03 04:18:34;;;;;;;10.68;2.45;;;;;;;2.99;100.00;100824.41;5054144;28;20459;-56
2021/12/03 04:20:59;;;;;;;11.13;2.55;;;;;;;2.99;100.00;100811.41;5055368;28;20089;-54
2021/12/03 04:23:24;;;;;;;11.88;3.28;;;;;;;2.90;100.00;100800.16;5054945;28;20053;-56
2021/12/03 04:25:51;;;;;;;8.25;3.38;;;;;;;2.95;100.00;100804.47;5054022;28;20076;-55
2021/12/03 04:28:18;;;;;;;11.10;4.25;;;;;;;3.00;100.00;100802.75;5053755;28;20033;-53
2021/12/03 04:30:44;;;;;;;10.85;3.97;;;;;;;2.95;100.00;100793.22;5053955;28;20032;-55
2021/12/03 04:33:09;;;;;;;15.43;3.60;;;;;;;3.02;100.00;100801.00;5054923;28;20059;-57
2021/12/03 04:35:35;;;;;;;15.52;3.60;;;;;;;2.59;100.00;100718.78;5054983;28;20460;-54
2021/12/03 04:38:01;;;;;;;14.43;4.30;;;;;;;2.82;100.00;100754.25;5054734;28;20044;-55
2021/12/03 04:40:28;;;;;;;13.35;4.15;;;;;;;3.07;100.00;100794.03;5036749;28;20469;-54
2021/12/03 04:42:55;;;;;;;11.27;3.58;;;;;;;3.08;100.00;100774.09;5053851;28;20033;-53
2021/12/03 04:45:22;;;;;;;14.75;3.53;;;;;;;2.84;100.00;100721.31;5070235;28;20108;-57
2021/12/03 04:47:49;;;;;;;13.73;3.25;;;;;;;3.13;100.00;100780.16;5054857;28;20037;-55
2021/12/03 04:50:15;;;;;;;15.43;3.65;;;;;;;3.18;100.00;100783.63;5054666;28;20124;-52
2021/12/03 04:52:40;;;;;;;11.90;3.92;;;;;;;2.94;100.00;100736.88;5054682;28;20425;-51
2021/12/03 04:55:08;;;;;;;12.85;2.92;;;;;;;2.90;100.00;100725.63;5069958;28;20032;-51
2021/12/03 04:57:33;;;;;;;13.05;3.10;;;;;;;3.02;100.00;100745.53;5054678;28;20079;-57
2021/12/03 04:59:59;;;;;;;14.65;3.17;;;;;;;2.82;100.00;100706.59;5069952;28;20428;-55
2021/12/03 05:02:26;;;;;;;10.15;3.13;;;;;;;3.24;100.00;100768.84;5036661;28;20029;-57
2021/12/03 05:04:54;;;;;;;9.20;2.90;;;;;;;3.11;100.00;100755.91;5054238;28;20473;-57
2021/12/03 05:07:32;;;;;;;9.73;2.88;;;;;;;2.92;100.00;100708.28;5054256;28;20520;-52
2021/12/03 05:09:57;;;;;;;10.27;3.15;;;;;;;3.21;100.00;100748.03;5054238;28;20484;-56
2021/12/03 05:12:23;;;;;;;14.10;3.28;;;;;;;2.79;100.00;100681.47;5036427;28;20047;-56
2021/12/03 05:14:49;;;;;;;13.05;3.67;;;;;;;2.94;100.00;100706.56;5053834;28;20089;-50
2021/12/03 05:17:14;;;;;;;21.52;4.60;;;;;;;2.98;100.00;100710.03;5036282;28;20037;-55
2021/12/03 05:19:40;;;;;;;18.63;4.30;;;;;;;3.35;100.00;100764.47;5054140;28;20089;-55
2021/12/03 05:22:05;;;;;;;14.25;4.13;;;;;;;2.97;100.00;100698.75;5053881;28;20029;-55
2021/12/03 05:24:31;;;;;;;9.13;3.58;;;;;;;3.31;100.00;100761.88;5054242;28;20056;-53
2021/12/03 05:26:56;;;;;;;16.33;3.60;;;;;;;3.33;100.00;100753.19;5054101;28;20037;-56
2021/12/03 05:29:21;;;;;;;13.25;4.10;;;;;;;3.32;100.00;100776.63;5054060;28;20060;-56
2021/12/03 05:31:47;;;;;;;17.27;4.22;;;;;;;3.32;100.00;100759.28;5053717;28;20040;-56
2021/12/03 05:34:15;;;;;;;16.75;4.50;;;;;;;3.22;100.00;100736.78;5053699;28;20025;-56
2021/12/03 05:36:41;;;;;;;15.82;3.88;;;;;;;3.41;100.00;100753.19;5052415;28;20056;-55
2021/12/03 05:39:06;;;;;;;14.27;3.72;;;;;;;3.13;100.00;100699.53;5052316;28;20114;-57
2021/12/03 05:41:33;;;;;;;10.90;3.13;;;;;;;3.03;100.00;100679.66;5053733;28;20036;-54
2021/12/03 05:43:58;;;;;;;15.85;3.53;;;;;;;3.02;100.00;100672.72;5053604;28;20045;-55
2021/12/03 05:46:24;;;;;;;20.65;4.25;;;;;;;3.48;100.00;100738.38;5069016;28;20108;-57
2021/12/03 05:48:49;;;;;;;10.20;3.30;;;;;;;3.44;100.00;100726.28;5053550;28;20033;-54
2021/12/03 05:51:14;;;;;;;12.30;3.22;;;;;;;3.26;100.00;100675.19;5053308;28;20029;-53
2021/12/03 05:53:40;;;;;;;13.93;3.10;;;;;;;2.93;100.00;100620.75;5053699;28;20091;-51
2021/12/03 05:56:05;;;;;;;16.30;3.50;;;;;;;3.51;100.00;100717.53;5053462;28;20083;-57
2021/12/03 05:58:30;;;;;;;11.05;3.40;;;;;;;3.53;100.00;100734.03;5052196;28;20136;-52
2021/12/03 06:00:56;;;;;;;15.02;3.42;;;;;;;3.51;100.00;100736.63;5051971;28;20066;-53
2021/12/03 06:03:22;;;;;;;13.27;3.10;;;;;;;3.62;100.00;100750.44;5053207;28;20033;-53
2021/12/03 06:05:47;;;;;;;12.52;3.63;;;;;;;3.60;100.00;100741.78;5053239;28;20041;-54
2021/12/03 06:08:12;;;;;;;17.83;4.35;;;;;;;3.60;100.00;100754.81;5053147;28;20033;-54
2021/12/03 06:10:38;;;;;;;14.48;4.70;;;;;;;3.35;100.00;100711.56;5053240;28;20029;-54
2021/12/03 06:13:04;;;;;;;19.33;4.60;;;;;;;3.66;100.00;100759.09;5053174;28;20091;-54
2021/12/03 06:15:29;;;;;;;16.83;4.90;;;;;;;3.66;100.00;100757.38;5052837;28;20073;-55
2021/12/03 06:17:56;;;;;;;12.35;4.30;;;;;;;3.67;100.00;100742.63;5052962;28;20044;-57
2021/12/03 06:20:23;;;;;;;13.45;4.78;;;;;;;3.64;100.00;100743.50;5052930;28;20036;-56
2021/12/03 06:22:48;;;;;;;14.93;4.22;;;;;;;3.35;100.00;100683.81;5052887;28;20037;-59
2021/12/03 06:25:14;;;;;;;10.50;4.13;;;;;;;3.40;100.00;100682.06;5051288;28;20102;-54
2021/12/03 06:27:41;;;;;;;15.15;4.85;;;;;;;3.78;100.00;100754.69;5049868;28;20079;-57
2021/12/03 06:30:09;;;;;;;17.98;4.72;;;;;;;3.81;100.00;100751.22;5051136;28;20040;-52
2021/12/03 06:32:35;;;;;;;10.35;3.97;;;;;;;3.66;100.00;100726.13;5052383;28;20408;-53
2021/12/03 06:35:01;;;;;;;14.07;4.10;;;;;;;3.70;100.00;100725.25;5052618;28;20044;-56
2021/12/03 06:37:26;;;;;;;13.68;4.18;;;;;;;3.41;100.00;100675.97;5052724;28;20120;-52
2021/12/03 06:39:52;;;;;;;12.73;3.58;;;;;;;3.77;100.00;100737.34;5052444;28;20037;-57
2021/12/03 06:42:17;;;;;;;19.50;3.95;;;;;;;3.81;100.00;100743.41;5050756;28;20021;-52
2021/12/03 06:44:42;;;;;;;17.92;5.13;;;;;;;3.77;100.00;100732.13;5049627;28;20079;-54
2021/12/03 06:47:08;;;;;;;13.77;4.28;;;;;;;3.66;100.00;100717.47;5051296;28;20142;-56
2021/12/03 06:49:34;;;;;;;11.75;4.53;;;;;;;3.40;100.00;100661.25;5067269;28;20064;-54
2021/12/03 06:52:06;;;;;;;16.55;4.32;;;;;;;3.41;100.00;100662.13;5050937;28;20202;-55
2021/12/03 06:54:34;;;;;;;15.07;4.43;;;;;;;3.65;100.00;100718.34;5051493;28;20120;-48
2021/12/03 06:57:00;;;;;;;16.67;4.20;;;;;;;3.41;100.00;100673.34;5051149;28;20061;-51
2021/12/03 06:59:26;;;;;;;15.23;5.03;;;;;;;3.71;100.00;100737.38;5052004;28;20025;-52
2021/12/03 07:01:52;;;;;;;22.13;5.97;;;;;;;3.32;100.00;100675.19;5051843;28;20097;-49
2021/12/03 07:04:20;;;;;;;16.83;5.00;;;;;;;3.68;100.00;100744.34;5052065;28;20040;-49
2021/12/03 07:06:46;;;;;;;15.32;4.53;;;;;;;3.66;100.00;100746.09;5052167;28;20475;-47
2021/12/03 07:09:12;;;;;;;13.80;4.18;;;;;;;3.62;100.00;100739.19;5052624;28;20047;-49
2021/12/03 07:11:37;;;;;;;13.48;4.68;;;;;;;3.42;100.00;100710.66;5052277;28;20036;-54
2021/12/03 07:14:04;;;;;;;15.13;5.07;;;;;;;3.15;100.00;100670.03;5052083;28;20040;-52
2021/12/03 07:16:29;;;;;;;15.80;4.72;;;;;;;3.38;100.00;100709.84;5067407;28;20043;-51
2021/12/03 07:18:55;;;;;;;18.55;5.00;;;;;;;3.26;100.00;100698.63;5052057;28;20033;-48
2021/12/03 07:21:20;;;;;;;18.35;4.60;;;;;;;3.58;100.00;100756.56;5052239;28;20053;-50
2021/12/03 07:23:47;;;;;;;14.80;4.05;;;;;;;3.12;100.00;100671.81;5067112;28;20045;-48
2021/12/03 07:26:13;;;;;;;16.88;4.25;;;;;;;3.51;100.00;100741.84;5051924;28;20079;-51
2021/12/03 07:28:38;;;;;;;16.92;5.03;;;;;;;3.11;100.00;100670.94;5052014;28;20491;-49
2021/12/03 07:31:03;;;;;;;11.02;4.90;;;;;;;3.15;100.00;100679.59;5050439;28;20318;-51
2021/12/03 07:33:31;;;;;;;15.25;5.57;;;;;;;3.48;100.00;100738.38;5067568;28;20037;-52
2021/12/03 07:35:56;;;;;;;14.27;4.45;;;;;;;3.47;100.00;100739.28;5051988;28;20033;-48
2021/12/03 07:38:21;;;;;;;17.65;5.20;;;;;;;3.06;100.00;100670.09;5069083;28;20086;-47
2021/12/03 07:40:48;;;;;;;15.45;5.60;;;;;;;3.41;100.00;100747.97;5055934;28;20432;-47
2021/12/03 07:43:17;;;;;;;16.27;4.57;;;;;;;3.41;100.00;100734.97;5055878;28;20033;-50
2021/12/03 07:45:44;;;;;;;13.77;4.38;;;;;;;3.36;100.00;100726.28;5055837;28;20039;-52
2021/12/03 07:48:09;;;;;;;15.20;4.60;;;;;;;3.30;100.00;100705.50;5055898;28;20033;-48
2021/12/03 07:50:37;;;;;;;15.15;4.60;;;;;;;3.24;100.00;100695.16;5071146;28;20040;-47
2021/12/03 07:53:03;;;;;;;12.43;4.50;;;;;;;3.26;100.00;100712.50;5071075;28;20119;-47
2021/12/03 07:55:29;;;;;;;13.32;4.68;;;;;;;3.34;100.00;100704.63;5055623;28;20396;-50
2021/12/03 07:57:55;;;;;;;10.68;4.05;;;;;;;3.37;100.00;100720.22;5070899;28;20033;-48
2021/12/03 08:00:21;;;;;;;16.73;4.80;;;;;;;3.43;100.00;100715.00;5055543;28;20040;-52
2021/12/03 08:02:46;;;;;;;13.38;4.05;;;;;;;3.06;100.00;100658.84;5055865;28;20044;-49
2021/12/03 08:05:12;;;;;;;14.30;4.50;;;;;;;3.41;100.00;100725.41;5055527;28;20040;-54
2021/12/03 08:07:39;;;;;;;14.43;4.40;;;;;;;3.00;100.00;100649.34;5054237;28;20128;-47
2021/12/03 08:10:05;;;;;;;14.02;3.97;;;;;;;3.12;100.00;100649.28;5055212;28;20490;-48
2021/12/03 08:12:30;;;;;;;11.45;3.95;;;;;;;3.46;100.00;100701.09;5055233;28;20400;-49
2021/12/03 08:14:55;;;;;;;14.10;4.30;;;;;;;3.16;100.00;100652.69;5041049;28;20029;-50
2021/12/03 08:17:21;;;;;;;11.90;3.97;;;;;;;3.19;100.00;100655.28;5035068;28;20068;-50
2021/12/03 08:19:46;;;;;;;10.40;4.00;;;;;;;3.16;100.00;100634.50;5050820;28;20037;-49
2021/12/03 08:22:11;;;;;;;14.18;4.18;;;;;;;3.14;100.00;100644.91;5035108;28;20029;-48
2021/12/03 08:24:37;;;;;;;14.75;4.25;;;;;;;3.26;100.00;100647.47;5035141;28;20096;-49
2021/12/03 08:27:02;;;;;;;12.88;4.63;;;;;;;3.23;100.00;100641.41;5035050;28;20824;-48
2021/12/03 08:29:28;;;;;;;9.35;3.80;;;;;;;3.55;100.00;100696.72;5034915;28;20041;-47
2021/12/03 08:31:53;;;;;;;13.75;4.28;;;;;;;3.36;100.00;100654.31;5035221;28;20504;-47
2021/12/03 08:34:18;;;;;;;12.20;3.90;;;;;;;3.60;100.00;100670.66;5034992;28;20082;-48
2021/12/03 08:36:44;;;;;;;11.23;3.63;;;;;;;3.59;100.00;100658.53;5035287;28;20033;-48
2021/12/03 08:39:09;;;;;;;11.00;3.35;;;;;;;3.74;100.00;100669.69;5033705;28;20042;-47
2021/12/03 08:41:35;;;;;;;12.88;3.80;;;;;;;3.79;100.00;100670.53;5034715;28;20595;-55
2021/12/03 08:44:02;;;;;;;8.65;3.45;;;;;;;3.90;100.00;100683.44;5034686;28;20041;-47
2021/12/03 08:46:36;;;;;;;6.10;2.70;;;;;;;3.97;100.00;100685.97;5035022;28;20038;-48
2021/12/03 08:49:27;;;;;;;6.80;2.60;;;;;;;3.69;100.00;100629.81;5034480;28;20033;-48
2021/12/03 08:57:16;;;;;;;5.32;1.60;;;;;;;4.01;100.00;100672.94;5033162;28;20550;-48
2021/12/03 08:59:41;;;;;;;6.47;2.20;;;;;;;3.67;100.00;100605.53;5033246;28;20090;-48
2021/12/03 09:02:06;;;;;;;7.55;2.38;;;;;;;3.67;100.00;100594.25;5031838;28;20128;-47
2021/12/03 09:04:32;;;;;;;9.10;2.45;;;;;;;4.06;100.00;100655.56;5032801;28;20187;-51
2021/12/03 09:06:58;;;;;;;5.93;2.28;;;;;;;4.06;100.00;100639.94;5033006;28;20049;-47
2021/12/03 09:09:24;;;;;;;6.90;2.05;;;;;;;4.04;100.00;100615.63;5032415;28;20476;-49
2021/12/03 09:11:50;;;;;;;10.88;2.40;;;;;;;4.22;100.00;100644.09;5032813;28;20052;-50
2021/12/03 09:14:27;;;;;;;12.93;2.72;;;;;;;4.07;100.00;100597.34;5032495;28;20033;-50
2021/12/03 09:17:02;;;;;;;6.95;2.42;;;;;;;4.07;100.00;100589.53;5032514;28;20132;-46
2021/12/03 09:19:36;;;;;;;8.23;2.45;;;;;;;4.07;100.00;100566.97;5032604;28;20025;-51
2021/12/03 09:22:01;;;;;;;7.50;2.17;;;;;;;4.16;100.00;100581.63;5032215;28;20041;-51
2021/12/03 09:24:35;;;;;;;4.97;1.95;;;;;;;4.48;100.00;100629.06;5032036;28;20046;-50
2021/12/03 09:27:00;;;;;;;5.93;2.70;;;;;;;4.16;100.00;100577.28;5046265;28;20037;-53
2021/12/03 09:29:31;;;;;;;6.78;2.35;;;;;;;4.10;100.00;100569.53;5048372;28;20049;-48
2021/12/03 09:31:58;;;;;;;4.70;2.17;;;;;;;4.11;100.00;100570.41;5032378;28;20281;-51
2021/12/03 09:34:25;;;;;;;4.50;2.42;;;;;;;4.41;100.00;100617.81;5032648;28;20037;-52
2021/12/03 09:36:50;;;;;;;6.80;2.30;;;;;;;4.39;100.00;100627.41;5032113;28;20037;-50
2021/12/03 09:39:21;;;;;;;7.53;2.28;;;;;;;3.97;100.00;100571.41;5032674;28;20510;-53
2021/12/03 09:41:48;;;;;;;10.73;3.85;;;;;;;4.02;100.00;100568.75;5033083;28;20041;-52
2021/12/03 09:44:13;;;;;;;10.15;3.58;;;;;;;4.03;100.00;100577.44;5032293;28;20031;-52
2021/12/03 09:46:39;;;;;;;9.00;3.15;;;;;;;4.20;100.00;100607.66;5047963;28;20116;-47
2021/12/03 09:56:55;;;;;;;14.75;3.75;;;;;;;4.15;100.00;100582.50;5032151;28;20047;-48
2021/12/03 10:02:11;;;;;;;12.52;4.43;;;;;;;3.90;100.00;100529.81;5031351;28;20037;-49
2021/12/03 10:05:18;;;;;;;18.10;5.43;;;;;;;3.84;100.00;100517.72;5032167;28;20045;-48
2021/12/03 10:10:27;;;;;;;22.05;6.90;;;;;;;3.96;100.00;100550.59;5031940;28;20076;-49
2021/12/03 10:37:14;;;;;;;22.02;7.40;;;;;;;3.73;100.00;100506.56;5044181;28;20083;-47
2021/12/03 10:42:37;;;;;;;21.10;8.35;;;;;;;3.50;100.00;100443.47;5031467;28;20052;-51
2021/12/03 10:45:34;;;;;;;21.67;6.93;;;;;;;3.57;100.00;100437.31;5031124;28;20124;-51
2021/12/03 10:50:43;;;;;;;20.88;7.00;;;;;;;3.61;100.00;100431.22;5031452;28;20473;-51
2021/12/03 10:53:34;;;;;;;13.35;5.82;;;;;;;4.01;100.00;100490.63;5031015;28;20106;-48
2021/12/03 10:56:30;;;;;;;15.45;5.75;;;;;;;3.96;100.00;100481.16;5030679;28;20488;-50
2021/12/03 11:39:52;;;;;;;11.15;4.38;;;;;;;4.30;100.00;100392.16;5045671;28;20068;-51
2021/12/03 13:27:40;;;;;;;4.75;3.50;;;;;;;4.45;100.00;100192.16;5045583;28;20136;-45
2021/12/03 14:02:23;;;;;;;5.60;3.55;;;;;;;4.39;100.00;100186.16;5032145;28;20008;-50
2021/12/03 14:08:34;;;;;;;4.22;3.17;;;;;;;4.72;100.00;100244.66;5030816;28;19909;-48
2021/12/03 14:56:42;;;;;;;4.82;4.50;;;;;;;4.48;100.00;100199.03;5030954;28;20042;-49
2021/12/03 14:59:15;;;;;;;5.82;5.00;;;;;;;4.10;100.00;100129.38;5029788;28;20083;-50
2021/12/03 15:07:01;;;;;;;6.50;5.80;;;;;;;4.44;100.00;100168.69;5031557;28;20041;-50
2021/12/03 15:09:48;;;;;;;7.32;6.43;;;;;;;4.41;100.00;100182.66;5031202;28;20029;-51
2021/12/03 15:22:50;;;;;;;7.53;6.93;;;;;;;4.51;100.00;100170.31;5047563;28;20049;-48
2021/12/03 15:25:34;;;;;;;8.02;6.88;;;;;;;4.06;100.00;100096.44;5014589;28;20058;-53
2021/12/03 15:33:07;;;;;;;8.45;7.65;;;;;;;4.22;100.00;100102.25;5031077;28;20037;-51
2021/12/03 15:35:43;;;;;;;8.10;7.30;;;;;;;4.28;100.00;100121.25;5030951;28;20041;-48
2021/12/03 15:38:22;;;;;;;10.30;7.82;;;;;;;4.13;100.00;100090.25;5031006;28;20029;-46
2021/12/03 15:54:42;;;;;;;9.57;8.88;;;;;;;4.61;100.00;100124.97;5043989;28;20456;-48
2021/12/03 15:57:21;;;;;;;10.38;9.25;;;;;;;4.66;100.00;100128.34;5030409;28;20107;-47
2021/12/03 16:53:04;;;;;;;12.45;11.43;;;;;;;4.84;100.00;100121.88;5033524;28;20045;-50
2021/12/03 16:55:29;;;;;;;12.77;11.57;;;;;;;4.48;100.00;100055.72;5048588;28;20483;-51
2021/12/03 16:57:55;;;;;;;13.68;12.43;;;;;;;4.85;100.00;100120.97;5033217;28;20029;-48
2021/12/03 17:03:19;;;;;;;14.73;13.43;;;;;;;4.61;100.00;100065.00;5048535;28;20057;-48
2021/12/03 17:08:53;;;;;;;14.15;12.95;;;;;;;4.46;100.00;100016.66;5029636;28;20132;-50
2021/12/03 17:51:36;;;;;;;33.00;28.13;;;;;;;4.53;100.00;100000.00;5046684;28;20045;-49
2021/12/03 17:56:44;;;;;;;32.40;28.23;;;;;;;4.63;100.00;100018.06;5032354;28;20103;-47
2021/12/03 17:59:22;;;;;;;34.67;27.92;;;;;;;4.86;100.00;100053.16;5032012;28;20045;-48
2021/12/03 18:02:02;;;;;;;35.95;27.65;;;;;;;4.86;100.00;100050.56;5047101;28;20033;-49
2021/12/03 18:04:40;;;;;;;39.40;29.58;;;;;;;4.77;100.00;100035.13;5031286;28;20465;-48
2021/12/03 18:53:08;;;;;;;39.17;27.38;;;;;;;4.68;100.00;100050.09;5045690;28;20111;-49
2021/12/03 18:55:37;;;;;;;38.58;27.85;;;;;;;4.42;100.00;100016.75;5031441;28;20048;-50
2021/12/03 18:58:04;;;;;;;43.15;28.95;;;;;;;4.66;100.00;100062.31;5032473;28;20034;-49